sensor_id;sensor_type;location;lat;lon;timestamp;P1;durP1;ratioP1;P2;durP2;ratioP2
66487;SDS011;53304;54.550;18.526;2023-07-31T00:01:39;2.17;;;1.40;;
66487;SDS011;53304;54.550;18.526;2023-07-31T00:04:05;2.30;;;1.13;;
66487;SDS011;53304;54.550;18.526;2023-07-31T00:06:33;2.30;;;1.17;;
66487;SDS011;53304;54.550;18.526;2023-07-31T00:09:03;1.63;;;1.10;;
66487;SDS011;53304;54.550;18.526;2023-07-31T00:11:28;3.03;;;1.30;;
66487;SDS011;53304;54.550;18.526;2023-07-31T00:13:53;1.90;;;1.10;;
66487;SDS011;53304;54.550;18.526;2023-07-31T00:16:19;2.10;;;1.35;;
66487;SDS011;53304;54.550;18.526;2023-07-31T00:18:47;2.20;;;1.13;;
66487;SDS011;53304;54.550;18.526;2023-07-31T00:21:17;2.88;;;1.40;;
66487;SDS011;53304;54.550;18.526;2023-07-31T00:23:47;2.90;;;1.25;;
66487;SDS011;53304;54.550;18.526;2023-07-31T00:26:13;2.10;;;1.25;;
66487;SDS011;53304;54.550;18.526;2023-07-31T00:28:41;1.95;;;1.10;;
66487;SDS011;53304;54.550;18.526;2023-07-31T00:31:08;1.67;;;1.10;;
66487;SDS011;53304;54.550;18.526;2023-07-31T00:33:39;1.25;;;1.05;;
66487;SDS011;53304;54.550;18.526;2023-07-31T00:36:04;2.05;;;1.27;;
66487;SDS011;53304;54.550;18.526;2023-07-31T00:38:34;2.65;;;1.30;;
66487;SDS011;53304;54.550;18.526;2023-07-31T00:40:59;3.35;;;1.40;;
66487;SDS011;53304;54.550;18.526;2023-07-31T00:43:27;2.83;;;1.20;;
66487;SDS011;53304;54.550;18.526;2023-07-31T00:45:52;2.63;;;1.20;;
66487;SDS011;53304;54.550;18.526;2023-07-31T00:48:20;1.48;;;0.90;;
66487;SDS011;53304;54.550;18.526;2023-07-31T00:50:46;2.08;;;1.23;;
66487;SDS011;53304;54.550;18.526;2023-07-31T00:53:14;1.73;;;1.20;;
66487;SDS011;53304;54.550;18.526;2023-07-31T00:55:42;1.45;;;0.95;;
66487;SDS011;53304;54.550;18.526;2023-07-31T00:58:07;1.85;;;1.20;;
66487;SDS011;53304;54.550;18.526;2023-07-31T01:03:33;1.92;;;1.10;;
66487;SDS011;53304;54.550;18.526;2023-07-31T01:11:04;1.63;;;1.05;;
66487;SDS011;53304;54.550;18.526;2023-07-31T01:13:36;2.53;;;1.10;;
66487;SDS011;53304;54.550;18.526;2023-07-31T01:16:04;2.55;;;1.23;;
66487;SDS011;53304;54.550;18.526;2023-07-31T01:18:29;1.27;;;1.08;;
66487;SDS011;53304;54.550;18.526;2023-07-31T01:20:57;2.85;;;1.27;;
66487;SDS011;53304;54.550;18.526;2023-07-31T01:23:41;2.10;;;1.30;;
66487;SDS011;53304;54.550;18.526;2023-07-31T01:26:19;2.15;;;1.10;;
66487;SDS011;53304;54.550;18.526;2023-07-31T01:28:56;3.03;;;1.10;;
66487;SDS011;53304;54.550;18.526;2023-07-31T01:31:29;1.98;;;1.02;;
66487;SDS011;53304;54.550;18.526;2023-07-31T01:33:56;2.10;;;1.23;;
66487;SDS011;53304;54.550;18.526;2023-07-31T01:36:25;2.03;;;1.20;;
66487;SDS011;53304;54.550;18.526;2023-07-31T01:38:53;1.80;;;1.27;;
66487;SDS011;53304;54.550;18.526;2023-07-31T01:41:25;2.65;;;1.63;;
66487;SDS011;53304;54.550;18.526;2023-07-31T01:43:55;1.38;;;1.10;;
66487;SDS011;53304;54.550;18.526;2023-07-31T01:46:23;2.08;;;1.10;;
66487;SDS011;53304;54.550;18.526;2023-07-31T01:48:51;1.95;;;1.05;;
66487;SDS011;53304;54.550;18.526;2023-07-31T01:51:19;2.50;;;1.17;;
66487;SDS011;53304;54.550;18.526;2023-07-31T01:53:47;1.65;;;1.20;;
66487;SDS011;53304;54.550;18.526;2023-07-31T01:56:14;2.53;;;1.15;;
66487;SDS011;53304;54.550;18.526;2023-07-31T01:58:40;1.58;;;1.08;;
66487;SDS011;53304;54.550;18.526;2023-07-31T02:01:05;3.20;;;1.23;;
66487;SDS011;53304;54.550;18.526;2023-07-31T02:03:31;2.20;;;1.10;;
66487;SDS011;53304;54.550;18.526;2023-07-31T02:05:58;1.48;;;0.95;;
66487;SDS011;53304;54.550;18.526;2023-07-31T02:08:24;1.77;;;0.90;;
66487;SDS011;53304;54.550;18.526;2023-07-31T02:10:51;3.13;;;1.52;;
66487;SDS011;53304;54.550;18.526;2023-07-31T02:13:19;2.40;;;1.10;;
66487;SDS011;53304;54.550;18.526;2023-07-31T02:15:45;3.22;;;1.10;;
66487;SDS011;53304;54.550;18.526;2023-07-31T02:18:15;3.42;;;1.27;;
66487;SDS011;53304;54.550;18.526;2023-07-31T02:20:43;1.98;;;1.17;;
66487;SDS011;53304;54.550;18.526;2023-07-31T02:23:11;2.53;;;1.20;;
66487;SDS011;53304;54.550;18.526;2023-07-31T02:25:36;2.67;;;1.35;;
66487;SDS011;53304;54.550;18.526;2023-07-31T02:28:04;2.03;;;1.00;;
66487;SDS011;53304;54.550;18.526;2023-07-31T02:30:32;2.53;;;1.10;;
66487;SDS011;53304;54.550;18.526;2023-07-31T02:32:57;2.22;;;1.00;;
66487;SDS011;53304;54.550;18.526;2023-07-31T02:35:25;2.55;;;1.13;;
66487;SDS011;53304;54.550;18.526;2023-07-31T02:37:53;1.92;;;1.02;;
66487;SDS011;53304;54.550;18.526;2023-07-31T02:40:18;1.67;;;1.20;;
66487;SDS011;53304;54.550;18.526;2023-07-31T02:42:44;1.52;;;0.90;;
66487;SDS011;53304;54.550;18.526;2023-07-31T02:45:11;1.85;;;1.00;;
66487;SDS011;53304;54.550;18.526;2023-07-31T02:47:39;1.77;;;0.95;;
66487;SDS011;53304;54.550;18.526;2023-07-31T02:50:05;1.52;;;0.90;;
66487;SDS011;53304;54.550;18.526;2023-07-31T02:52:31;2.80;;;1.10;;
66487;SDS011;53304;54.550;18.526;2023-07-31T02:54:57;1.60;;;0.93;;
66487;SDS011;53304;54.550;18.526;2023-07-31T02:57:22;2.28;;;1.17;;
66487;SDS011;53304;54.550;18.526;2023-07-31T02:59:52;1.23;;;0.90;;
66487;SDS011;53304;54.550;18.526;2023-07-31T03:02:20;1.63;;;1.00;;
66487;SDS011;53304;54.550;18.526;2023-07-31T03:04:48;1.58;;;1.00;;
66487;SDS011;53304;54.550;18.526;2023-07-31T03:07:13;1.65;;;0.98;;
66487;SDS011;53304;54.550;18.526;2023-07-31T03:09:39;2.72;;;1.30;;
66487;SDS011;53304;54.550;18.526;2023-07-31T03:12:04;1.05;;;0.90;;
66487;SDS011;53304;54.550;18.526;2023-07-31T03:14:30;1.70;;;1.08;;
66487;SDS011;53304;54.550;18.526;2023-07-31T03:16:58;1.67;;;1.00;;
66487;SDS011;53304;54.550;18.526;2023-07-31T03:19:24;2.38;;;1.00;;
66487;SDS011;53304;54.550;18.526;2023-07-31T03:21:50;4.93;;;1.30;;
66487;SDS011;53304;54.550;18.526;2023-07-31T03:24:15;1.75;;;1.10;;
66487;SDS011;53304;54.550;18.526;2023-07-31T03:26:43;2.67;;;0.82;;
66487;SDS011;53304;54.550;18.526;2023-07-31T03:29:15;2.08;;;0.93;;
66487;SDS011;53304;54.550;18.526;2023-07-31T03:31:41;2.30;;;1.00;;
66487;SDS011;53304;54.550;18.526;2023-07-31T03:34:06;3.53;;;1.15;;
66487;SDS011;53304;54.550;18.526;2023-07-31T03:36:31;1.35;;;0.85;;
66487;SDS011;53304;54.550;18.526;2023-07-31T03:38:57;2.05;;;1.00;;
66487;SDS011;53304;54.550;18.526;2023-07-31T03:41:25;1.58;;;0.93;;
66487;SDS011;53304;54.550;18.526;2023-07-31T03:43:51;1.88;;;1.00;;
66487;SDS011;53304;54.550;18.526;2023-07-31T03:46:17;1.95;;;1.10;;
66487;SDS011;53304;54.550;18.526;2023-07-31T03:48:47;1.10;;;0.80;;
66487;SDS011;53304;54.550;18.526;2023-07-31T03:51:16;2.65;;;1.00;;
66487;SDS011;53304;54.550;18.526;2023-07-31T03:53:44;1.65;;;1.00;;
66487;SDS011;53304;54.550;18.526;2023-07-31T03:56:09;1.73;;;1.00;;
66487;SDS011;53304;54.550;18.526;2023-07-31T03:58:43;1.42;;;0.90;;
66487;SDS011;53304;54.550;18.526;2023-07-31T04:01:08;1.60;;;1.00;;
66487;SDS011;53304;54.550;18.526;2023-07-31T04:03:36;4.53;;;1.00;;
66487;SDS011;53304;54.550;18.526;2023-07-31T04:06:01;3.65;;;1.05;;
66487;SDS011;53304;54.550;18.526;2023-07-31T04:08:29;2.83;;;1.30;;
66487;SDS011;53304;54.550;18.526;2023-07-31T04:10:57;1.45;;;0.80;;
66487;SDS011;53304;54.550;18.526;2023-07-31T04:13:24;1.95;;;0.88;;
66487;SDS011;53304;54.550;18.526;2023-07-31T04:15:53;3.20;;;1.02;;
66487;SDS011;53304;54.550;18.526;2023-07-31T04:18:19;1.48;;;0.90;;
66487;SDS011;53304;54.550;18.526;2023-07-31T04:20:44;1.77;;;0.85;;
66487;SDS011;53304;54.550;18.526;2023-07-31T04:23:10;1.35;;;0.88;;
66487;SDS011;53304;54.550;18.526;2023-07-31T04:25:35;1.60;;;1.00;;
66487;SDS011;53304;54.550;18.526;2023-07-31T04:28:03;1.80;;;1.00;;
66487;SDS011;53304;54.550;18.526;2023-07-31T04:30:34;1.73;;;1.03;;
66487;SDS011;53304;54.550;18.526;2023-07-31T04:33:01;1.48;;;1.08;;
66487;SDS011;53304;54.550;18.526;2023-07-31T04:35:27;1.70;;;1.08;;
66487;SDS011;53304;54.550;18.526;2023-07-31T04:37:57;1.50;;;1.00;;
66487;SDS011;53304;54.550;18.526;2023-07-31T04:40:22;2.00;;;0.93;;
66487;SDS011;53304;54.550;18.526;2023-07-31T04:42:50;2.20;;;1.00;;
66487;SDS011;53304;54.550;18.526;2023-07-31T04:45:16;1.35;;;0.90;;
66487;SDS011;53304;54.550;18.526;2023-07-31T04:47:41;1.70;;;0.90;;
66487;SDS011;53304;54.550;18.526;2023-07-31T04:50:07;1.88;;;0.90;;
66487;SDS011;53304;54.550;18.526;2023-07-31T04:52:32;2.70;;;0.90;;
66487;SDS011;53304;54.550;18.526;2023-07-31T04:54:58;1.23;;;0.85;;
66487;SDS011;53304;54.550;18.526;2023-07-31T04:57:25;1.45;;;1.00;;
66487;SDS011;53304;54.550;18.526;2023-07-31T04:59:55;1.33;;;0.82;;
66487;SDS011;53304;54.550;18.526;2023-07-31T05:02:21;2.03;;;1.10;;
66487;SDS011;53304;54.550;18.526;2023-07-31T05:04:49;2.22;;;0.77;;
66487;SDS011;53304;54.550;18.526;2023-07-31T05:07:19;1.60;;;1.10;;
66487;SDS011;53304;54.550;18.526;2023-07-31T05:09:45;1.95;;;0.90;;
66487;SDS011;53304;54.550;18.526;2023-07-31T05:12:13;1.70;;;1.17;;
66487;SDS011;53304;54.550;18.526;2023-07-31T05:14:38;1.27;;;0.80;;
66487;SDS011;53304;54.550;18.526;2023-07-31T05:17:06;0.88;;;0.68;;
66487;SDS011;53304;54.550;18.526;2023-07-31T05:19:31;1.90;;;0.88;;
66487;SDS011;53304;54.550;18.526;2023-07-31T05:22:02;1.25;;;0.88;;
66487;SDS011;53304;54.550;18.526;2023-07-31T05:24:30;1.63;;;0.90;;
66487;SDS011;53304;54.550;18.526;2023-07-31T05:26:55;1.58;;;1.00;;
66487;SDS011;53304;54.550;18.526;2023-07-31T05:29:23;1.35;;;1.10;;
66487;SDS011;53304;54.550;18.526;2023-07-31T05:31:48;1.05;;;0.90;;
66487;SDS011;53304;54.550;18.526;2023-07-31T05:34:13;1.80;;;0.98;;
66487;SDS011;53304;54.550;18.526;2023-07-31T05:36:39;1.13;;;1.00;;
66487;SDS011;53304;54.550;18.526;2023-07-31T05:39:07;2.38;;;0.98;;
66487;SDS011;53304;54.550;18.526;2023-07-31T05:41:39;1.20;;;0.90;;
66487;SDS011;53304;54.550;18.526;2023-07-31T05:44:05;0.85;;;0.80;;
66487;SDS011;53304;54.550;18.526;2023-07-31T05:46:30;1.77;;;1.00;;
66487;SDS011;53304;54.550;18.526;2023-07-31T05:48:56;1.45;;;0.88;;
66487;SDS011;53304;54.550;18.526;2023-07-31T05:51:25;1.33;;;0.80;;
66487;SDS011;53304;54.550;18.526;2023-07-31T05:53:51;1.90;;;0.90;;
66487;SDS011;53304;54.550;18.526;2023-07-31T05:56:16;1.52;;;0.80;;
66487;SDS011;53304;54.550;18.526;2023-07-31T05:58:44;1.10;;;0.80;;
66487;SDS011;53304;54.550;18.526;2023-07-31T06:01:11;2.47;;;1.00;;
66487;SDS011;53304;54.550;18.526;2023-07-31T06:03:39;1.70;;;0.90;;
66487;SDS011;53304;54.550;18.526;2023-07-31T06:06:07;1.25;;;1.00;;
66487;SDS011;53304;54.550;18.526;2023-07-31T06:08:38;2.08;;;0.98;;
66487;SDS011;53304;54.550;18.526;2023-07-31T06:11:06;1.08;;;0.80;;
66487;SDS011;53304;54.550;18.526;2023-07-31T06:13:34;1.55;;;0.95;;
66487;SDS011;53304;54.550;18.526;2023-07-31T06:16:05;2.63;;;0.90;;
66487;SDS011;53304;54.550;18.526;2023-07-31T06:18:36;1.27;;;0.70;;
66487;SDS011;53304;54.550;18.526;2023-07-31T06:21:02;0.82;;;0.80;;
66487;SDS011;53304;54.550;18.526;2023-07-31T06:23:27;1.30;;;0.88;;
66487;SDS011;53304;54.550;18.526;2023-07-31T06:25:55;1.42;;;0.75;;
66487;SDS011;53304;54.550;18.526;2023-07-31T06:28:27;3.00;;;1.10;;
66487;SDS011;53304;54.550;18.526;2023-07-31T06:30:55;2.08;;;0.80;;
66487;SDS011;53304;54.550;18.526;2023-07-31T06:33:23;1.45;;;0.98;;
66487;SDS011;53304;54.550;18.526;2023-07-31T06:35:52;1.02;;;0.80;;
66487;SDS011;53304;54.550;18.526;2023-07-31T06:38:26;1.00;;;0.80;;
66487;SDS011;53304;54.550;18.526;2023-07-31T06:40:54;1.45;;;1.00;;
66487;SDS011;53304;54.550;18.526;2023-07-31T06:43:25;1.02;;;0.80;;
66487;SDS011;53304;54.550;18.526;2023-07-31T06:45:50;0.70;;;0.70;;
66487;SDS011;53304;54.550;18.526;2023-07-31T06:48:16;0.80;;;0.70;;
66487;SDS011;53304;54.550;18.526;2023-07-31T06:50:44;3.13;;;0.85;;
66487;SDS011;53304;54.550;18.526;2023-07-31T06:53:11;1.63;;;0.88;;
66487;SDS011;53304;54.550;18.526;2023-07-31T06:55:39;1.75;;;0.90;;
66487;SDS011;53304;54.550;18.526;2023-07-31T06:58:09;1.80;;;0.90;;
66487;SDS011;53304;54.550;18.526;2023-07-31T07:00:39;1.48;;;0.77;;
66487;SDS011;53304;54.550;18.526;2023-07-31T07:03:05;2.35;;;1.00;;
66487;SDS011;53304;54.550;18.526;2023-07-31T07:05:32;1.38;;;0.80;;
66487;SDS011;53304;54.550;18.526;2023-07-31T07:08:00;1.10;;;0.90;;
66487;SDS011;53304;54.550;18.526;2023-07-31T07:10:26;1.58;;;1.00;;
66487;SDS011;53304;54.550;18.526;2023-07-31T07:12:54;1.25;;;0.88;;
66487;SDS011;53304;54.550;18.526;2023-07-31T07:15:21;1.17;;;0.73;;
66487;SDS011;53304;54.550;18.526;2023-07-31T07:17:47;1.15;;;0.80;;
66487;SDS011;53304;54.550;18.526;2023-07-31T07:20:15;1.38;;;0.80;;
66487;SDS011;53304;54.550;18.526;2023-07-31T07:22:46;1.90;;;1.02;;
66487;SDS011;53304;54.550;18.526;2023-07-31T07:25:12;1.55;;;0.90;;
66487;SDS011;53304;54.550;18.526;2023-07-31T07:27:40;2.25;;;0.90;;
66487;SDS011;53304;54.550;18.526;2023-07-31T07:30:05;1.05;;;0.80;;
66487;SDS011;53304;54.550;18.526;2023-07-31T07:32:31;1.83;;;1.00;;
66487;SDS011;53304;54.550;18.526;2023-07-31T07:34:57;0.90;;;0.65;;
66487;SDS011;53304;54.550;18.526;2023-07-31T07:37:24;1.88;;;1.00;;
66487;SDS011;53304;54.550;18.526;2023-07-31T07:39:52;1.50;;;0.90;;
66487;SDS011;53304;54.550;18.526;2023-07-31T07:42:20;0.80;;;0.70;;
66487;SDS011;53304;54.550;18.526;2023-07-31T07:44:48;1.50;;;0.70;;
66487;SDS011;53304;54.550;18.526;2023-07-31T07:47:16;1.08;;;0.70;;
66487;SDS011;53304;54.550;18.526;2023-07-31T07:49:43;0.63;;;0.60;;
66487;SDS011;53304;54.550;18.526;2023-07-31T07:52:09;1.65;;;0.70;;
66487;SDS011;53304;54.550;18.526;2023-07-31T07:54:39;1.27;;;0.82;;
66487;SDS011;53304;54.550;18.526;2023-07-31T07:57:09;0.98;;;0.80;;
66487;SDS011;53304;54.550;18.526;2023-07-31T07:59:37;1.50;;;0.82;;
66487;SDS011;53304;54.550;18.526;2023-07-31T08:02:02;0.85;;;0.73;;
66487;SDS011;53304;54.550;18.526;2023-07-31T08:04:28;0.95;;;0.75;;
66487;SDS011;53304;54.550;18.526;2023-07-31T08:06:55;1.35;;;1.00;;
66487;SDS011;53304;54.550;18.526;2023-07-31T08:09:23;0.80;;;0.80;;
66487;SDS011;53304;54.550;18.526;2023-07-31T08:11:48;1.65;;;0.73;;
66487;SDS011;53304;54.550;18.526;2023-07-31T08:14:16;0.50;;;0.50;;
66487;SDS011;53304;54.550;18.526;2023-07-31T08:16:42;1.83;;;0.60;;
66487;SDS011;53304;54.550;18.526;2023-07-31T08:19:13;1.42;;;0.75;;
66487;SDS011;53304;54.550;18.526;2023-07-31T08:21:41;1.05;;;0.68;;
66487;SDS011;53304;54.550;18.526;2023-07-31T08:24:06;1.98;;;0.70;;
66487;SDS011;53304;54.550;18.526;2023-07-31T08:26:35;1.75;;;0.70;;
66487;SDS011;53304;54.550;18.526;2023-07-31T08:29:01;0.77;;;0.70;;
66487;SDS011;53304;54.550;18.526;2023-07-31T08:31:29;0.80;;;0.60;;
66487;SDS011;53304;54.550;18.526;2023-07-31T08:33:55;1.17;;;0.70;;
66487;SDS011;53304;54.550;18.526;2023-07-31T08:36:21;2.05;;;0.90;;
66487;SDS011;53304;54.550;18.526;2023-07-31T08:38:47;1.25;;;0.77;;
66487;SDS011;53304;54.550;18.526;2023-07-31T08:41:12;1.20;;;0.90;;
66487;SDS011;53304;54.550;18.526;2023-07-31T08:43:42;1.75;;;0.82;;
66487;SDS011;53304;54.550;18.526;2023-07-31T08:46:14;1.40;;;0.80;;
66487;SDS011;53304;54.550;18.526;2023-07-31T08:48:45;1.33;;;1.08;;
66487;SDS011;53304;54.550;18.526;2023-07-31T08:51:14;1.55;;;0.80;;
66487;SDS011;53304;54.550;18.526;2023-07-31T08:53:39;1.15;;;0.80;;
66487;SDS011;53304;54.550;18.526;2023-07-31T08:56:07;2.28;;;0.90;;
66487;SDS011;53304;54.550;18.526;2023-07-31T08:58:33;1.25;;;0.80;;
66487;SDS011;53304;54.550;18.526;2023-07-31T09:01:03;1.10;;;0.70;;
66487;SDS011;53304;54.550;18.526;2023-07-31T09:03:29;1.80;;;0.88;;
66487;SDS011;53304;54.550;18.526;2023-07-31T09:05:58;1.55;;;0.95;;
66487;SDS011;53304;54.550;18.526;2023-07-31T09:08:24;2.03;;;0.90;;
66487;SDS011;53304;54.550;18.526;2023-07-31T09:10:51;1.33;;;0.98;;
66487;SDS011;53304;54.550;18.526;2023-07-31T09:13:20;2.03;;;0.90;;
66487;SDS011;53304;54.550;18.526;2023-07-31T09:15:48;1.60;;;0.68;;
66487;SDS011;53304;54.550;18.526;2023-07-31T09:18:14;1.63;;;0.90;;
66487;SDS011;53304;54.550;18.526;2023-07-31T09:20:43;1.45;;;0.90;;
66487;SDS011;53304;54.550;18.526;2023-07-31T09:23:11;1.77;;;0.80;;
66487;SDS011;53304;54.550;18.526;2023-07-31T09:25:43;2.42;;;0.73;;
66487;SDS011;53304;54.550;18.526;2023-07-31T09:28:11;0.77;;;0.68;;
66487;SDS011;53304;54.550;18.526;2023-07-31T09:30:49;1.17;;;0.77;;
66487;SDS011;53304;54.550;18.526;2023-07-31T09:33:17;2.40;;;0.90;;
66487;SDS011;53304;54.550;18.526;2023-07-31T09:35:46;1.20;;;0.65;;
66487;SDS011;53304;54.550;18.526;2023-07-31T09:38:15;1.48;;;0.75;;
66487;SDS011;53304;54.550;18.526;2023-07-31T09:40:46;0.80;;;0.70;;
66487;SDS011;53304;54.550;18.526;2023-07-31T09:43:18;0.88;;;0.65;;
66487;SDS011;53304;54.550;18.526;2023-07-31T09:45:45;0.95;;;0.70;;
66487;SDS011;53304;54.550;18.526;2023-07-31T09:48:17;1.20;;;0.70;;
66487;SDS011;53304;54.550;18.526;2023-07-31T09:50:44;1.02;;;0.75;;
66487;SDS011;53304;54.550;18.526;2023-07-31T09:53:10;0.77;;;0.73;;
66487;SDS011;53304;54.550;18.526;2023-07-31T09:55:44;1.85;;;0.85;;
66487;SDS011;53304;54.550;18.526;2023-07-31T09:58:10;1.77;;;0.65;;
66487;SDS011;53304;54.550;18.526;2023-07-31T10:00:36;1.52;;;0.80;;
66487;SDS011;53304;54.550;18.526;2023-07-31T10:03:06;1.05;;;0.80;;
66487;SDS011;53304;54.550;18.526;2023-07-31T10:05:51;0.70;;;0.70;;
66487;SDS011;53304;54.550;18.526;2023-07-31T10:08:21;1.38;;;0.60;;
66487;SDS011;53304;54.550;18.526;2023-07-31T10:10:51;1.48;;;0.60;;
66487;SDS011;53304;54.550;18.526;2023-07-31T10:13:16;1.10;;;0.70;;
66487;SDS011;53304;54.550;18.526;2023-07-31T10:15:45;1.48;;;0.95;;
66487;SDS011;53304;54.550;18.526;2023-07-31T10:18:10;1.60;;;0.70;;
66487;SDS011;53304;54.550;18.526;2023-07-31T10:20:39;0.60;;;0.60;;
66487;SDS011;53304;54.550;18.526;2023-07-31T10:23:05;0.93;;;0.70;;
66487;SDS011;53304;54.550;18.526;2023-07-31T10:25:31;1.25;;;0.70;;
66487;SDS011;53304;54.550;18.526;2023-07-31T10:28:02;1.15;;;0.80;;
66487;SDS011;53304;54.550;18.526;2023-07-31T10:30:30;0.68;;;0.60;;
66487;SDS011;53304;54.550;18.526;2023-07-31T10:33:03;0.90;;;0.65;;
66487;SDS011;53304;54.550;18.526;2023-07-31T10:35:29;0.70;;;0.60;;
66487;SDS011;53304;54.550;18.526;2023-07-31T10:37:54;1.42;;;0.98;;
66487;SDS011;53304;54.550;18.526;2023-07-31T10:40:24;1.65;;;0.70;;
66487;SDS011;53304;54.550;18.526;2023-07-31T10:42:56;1.35;;;0.70;;
66487;SDS011;53304;54.550;18.526;2023-07-31T10:45:31;1.23;;;0.70;;
66487;SDS011;53304;54.550;18.526;2023-07-31T10:48:17;1.45;;;0.80;;
66487;SDS011;53304;54.550;18.526;2023-07-31T10:50:51;1.83;;;0.80;;
66487;SDS011;53304;54.550;18.526;2023-07-31T10:55:49;0.95;;;0.77;;
66487;SDS011;53304;54.550;18.526;2023-07-31T10:58:19;1.70;;;1.00;;
66487;SDS011;53304;54.550;18.526;2023-07-31T11:00:46;1.90;;;0.80;;
66487;SDS011;53304;54.550;18.526;2023-07-31T11:03:17;1.17;;;0.80;;
66487;SDS011;53304;54.550;18.526;2023-07-31T11:08:26;0.85;;;0.70;;
66487;SDS011;53304;54.550;18.526;2023-07-31T11:11:11;1.85;;;0.80;;
66487;SDS011;53304;54.550;18.526;2023-07-31T11:16:21;2.05;;;0.80;;
66487;SDS011;53304;54.550;18.526;2023-07-31T11:18:50;0.75;;;0.70;;
66487;SDS011;53304;54.550;18.526;2023-07-31T11:21:19;1.23;;;0.70;;
66487;SDS011;53304;54.550;18.526;2023-07-31T11:23:53;1.33;;;0.70;;
66487;SDS011;53304;54.550;18.526;2023-07-31T11:26:24;2.05;;;0.70;;
66487;SDS011;53304;54.550;18.526;2023-07-31T11:28:52;2.43;;;0.80;;
66487;SDS011;53304;54.550;18.526;2023-07-31T11:31:20;1.50;;;0.60;;
66487;SDS011;53304;54.550;18.526;2023-07-31T11:33:48;0.93;;;0.80;;
66487;SDS011;53304;54.550;18.526;2023-07-31T11:36:19;1.27;;;0.77;;
66487;SDS011;53304;54.550;18.526;2023-07-31T11:38:45;1.10;;;0.70;;
66487;SDS011;53304;54.550;18.526;2023-07-31T11:41:13;1.17;;;0.70;;
66487;SDS011;53304;54.550;18.526;2023-07-31T11:43:44;0.85;;;0.80;;
66487;SDS011;53304;54.550;18.526;2023-07-31T11:46:13;1.27;;;0.60;;
66487;SDS011;53304;54.550;18.526;2023-07-31T11:48:43;1.60;;;0.70;;
66487;SDS011;53304;54.550;18.526;2023-07-31T11:51:10;1.67;;;0.80;;
66487;SDS011;53304;54.550;18.526;2023-07-31T11:53:52;1.73;;;0.80;;
66487;SDS011;53304;54.550;18.526;2023-07-31T11:56:21;1.70;;;0.90;;
66487;SDS011;53304;54.550;18.526;2023-07-31T11:58:51;0.73;;;0.70;;
66487;SDS011;53304;54.550;18.526;2023-07-31T12:01:19;0.70;;;0.70;;
66487;SDS011;53304;54.550;18.526;2023-07-31T12:03:50;1.45;;;0.80;;
66487;SDS011;53304;54.550;18.526;2023-07-31T12:06:19;1.20;;;0.80;;
66487;SDS011;53304;54.550;18.526;2023-07-31T12:08:46;1.05;;;0.70;;
66487;SDS011;53304;54.550;18.526;2023-07-31T12:11:11;0.60;;;0.45;;
66487;SDS011;53304;54.550;18.526;2023-07-31T12:13:40;0.80;;;0.68;;
66487;SDS011;53304;54.550;18.526;2023-07-31T12:16:05;2.05;;;0.68;;
66487;SDS011;53304;54.550;18.526;2023-07-31T12:18:35;0.82;;;0.63;;
66487;SDS011;53304;54.550;18.526;2023-07-31T12:21:02;0.60;;;0.60;;
66487;SDS011;53304;54.550;18.526;2023-07-31T12:23:33;0.88;;;0.65;;
66487;SDS011;53304;54.550;18.526;2023-07-31T12:31:09;1.87;;;0.90;;
66487;SDS011;53304;54.550;18.526;2023-07-31T12:33:38;1.17;;;0.60;;
66487;SDS011;53304;54.550;18.526;2023-07-31T12:36:15;0.75;;;0.68;;
66487;SDS011;53304;54.550;18.526;2023-07-31T12:38:42;0.60;;;0.60;;
66487;SDS011;53304;54.550;18.526;2023-07-31T12:41:10;0.90;;;0.80;;
66487;SDS011;53304;54.550;18.526;2023-07-31T12:43:37;1.63;;;0.82;;
66487;SDS011;53304;54.550;18.526;2023-07-31T12:46:03;0.88;;;0.70;;
66487;SDS011;53304;54.550;18.526;2023-07-31T12:48:29;0.95;;;0.60;;
66487;SDS011;53304;54.550;18.526;2023-07-31T12:50:57;1.33;;;0.80;;
66487;SDS011;53304;54.550;18.526;2023-07-31T12:53:25;1.00;;;0.80;;
66487;SDS011;53304;54.550;18.526;2023-07-31T12:55:52;2.13;;;0.77;;
66487;SDS011;53304;54.550;18.526;2023-07-31T12:58:20;1.08;;;0.65;;
66487;SDS011;53304;54.550;18.526;2023-07-31T13:00:46;0.90;;;0.70;;
66487;SDS011;53304;54.550;18.526;2023-07-31T13:03:11;2.08;;;0.63;;
66487;SDS011;53304;54.550;18.526;2023-07-31T13:05:39;0.95;;;0.50;;
66487;SDS011;53304;54.550;18.526;2023-07-31T13:08:04;0.90;;;0.70;;
66487;SDS011;53304;54.550;18.526;2023-07-31T13:10:32;1.40;;;0.70;;
66487;SDS011;53304;54.550;18.526;2023-07-31T13:13:01;1.25;;;0.77;;
66487;SDS011;53304;54.550;18.526;2023-07-31T13:15:28;1.38;;;0.60;;
66487;SDS011;53304;54.550;18.526;2023-07-31T13:17:59;0.80;;;0.70;;
66487;SDS011;53304;54.550;18.526;2023-07-31T13:20:24;1.05;;;0.70;;
66487;SDS011;53304;54.550;18.526;2023-07-31T13:22:52;0.88;;;0.82;;
66487;SDS011;53304;54.550;18.526;2023-07-31T13:25:22;1.73;;;0.88;;
66487;SDS011;53304;54.550;18.526;2023-07-31T13:27:48;0.88;;;0.80;;
66487;SDS011;53304;54.550;18.526;2023-07-31T13:30:13;1.17;;;0.80;;
66487;SDS011;53304;54.550;18.526;2023-07-31T13:32:41;0.85;;;0.77;;
66487;SDS011;53304;54.550;18.526;2023-07-31T13:35:08;3.13;;;0.68;;
66487;SDS011;53304;54.550;18.526;2023-07-31T13:37:37;1.30;;;0.70;;
66487;SDS011;53304;54.550;18.526;2023-07-31T13:40:02;1.63;;;0.80;;
66487;SDS011;53304;54.550;18.526;2023-07-31T13:42:30;1.17;;;0.70;;
66487;SDS011;53304;54.550;18.526;2023-07-31T13:44:58;0.90;;;0.80;;
66487;SDS011;53304;54.550;18.526;2023-07-31T13:47:26;1.30;;;0.63;;
66487;SDS011;53304;54.550;18.526;2023-07-31T13:49:56;0.75;;;0.50;;
66487;SDS011;53304;54.550;18.526;2023-07-31T13:52:22;1.50;;;0.73;;
66487;SDS011;53304;54.550;18.526;2023-07-31T13:54:47;0.95;;;0.70;;
66487;SDS011;53304;54.550;18.526;2023-07-31T13:57:15;1.92;;;0.70;;
66487;SDS011;53304;54.550;18.526;2023-07-31T13:59:40;0.95;;;0.85;;
66487;SDS011;53304;54.550;18.526;2023-07-31T14:02:09;1.05;;;0.80;;
66487;SDS011;53304;54.550;18.526;2023-07-31T14:04:36;0.90;;;0.65;;
66487;SDS011;53304;54.550;18.526;2023-07-31T14:07:02;0.70;;;0.70;;
66487;SDS011;53304;54.550;18.526;2023-07-31T14:09:31;0.80;;;0.70;;
66487;SDS011;53304;54.550;18.526;2023-07-31T14:11:59;1.00;;;0.68;;
66487;SDS011;53304;54.550;18.526;2023-07-31T14:14:24;1.77;;;0.80;;
66487;SDS011;53304;54.550;18.526;2023-07-31T14:16:49;3.58;;;0.77;;
66487;SDS011;53304;54.550;18.526;2023-07-31T14:19:19;0.68;;;0.60;;
66487;SDS011;53304;54.550;18.526;2023-07-31T14:21:47;0.73;;;0.70;;
66487;SDS011;53304;54.550;18.526;2023-07-31T14:24:13;0.95;;;0.73;;
66487;SDS011;53304;54.550;18.526;2023-07-31T14:26:38;1.30;;;0.88;;
66487;SDS011;53304;54.550;18.526;2023-07-31T14:29:04;0.90;;;0.70;;
66487;SDS011;53304;54.550;18.526;2023-07-31T14:31:31;2.03;;;0.80;;
66487;SDS011;53304;54.550;18.526;2023-07-31T14:33:57;0.98;;;0.68;;
66487;SDS011;53304;54.550;18.526;2023-07-31T14:36:22;1.02;;;0.68;;
66487;SDS011;53304;54.550;18.526;2023-07-31T14:38:50;1.67;;;0.88;;
66487;SDS011;53304;54.550;18.526;2023-07-31T14:41:15;1.35;;;0.80;;
66487;SDS011;53304;54.550;18.526;2023-07-31T14:43:41;1.05;;;0.88;;
66487;SDS011;53304;54.550;18.526;2023-07-31T14:46:08;1.08;;;0.70;;
66487;SDS011;53304;54.550;18.526;2023-07-31T14:48:36;0.90;;;0.70;;
66487;SDS011;53304;54.550;18.526;2023-07-31T14:51:04;1.05;;;0.65;;
66487;SDS011;53304;54.550;18.526;2023-07-31T14:53:31;1.10;;;0.70;;
66487;SDS011;53304;54.550;18.526;2023-07-31T14:55:57;0.65;;;0.65;;
66487;SDS011;53304;54.550;18.526;2023-07-31T14:58:24;0.70;;;0.63;;